createdAt,value
2023-03-26T00:00:40.761Z,1.08
2023-03-26T00:01:46.840Z,1.02
2023-03-26T00:02:52.494Z,1.10
2023-03-26T00:07:45.451Z,0.95
2023-03-26T00:32:17.773Z,1.00
2023-03-26T00:33:49.885Z,1.20
2023-03-26T00:34:54.207Z,1.00
2023-03-26T00:35:58.908Z,1.55
2023-03-26T00:37:02.971Z,1.10
2023-03-26T00:38:05.217Z,1.10
2023-03-26T00:39:08.286Z,0.93
2023-03-26T00:40:11.323Z,1.10
2023-03-26T00:41:22.853Z,0.93
2023-03-26T00:42:26.408Z,0.90
2023-03-26T00:43:33.183Z,1.10
2023-03-26T00:44:36.401Z,2.00
2023-03-26T00:45:38.482Z,0.95
2023-03-26T00:46:42.707Z,1.30
2023-03-26T00:47:46.484Z,1.33
2023-03-26T00:48:50.766Z,1.10
2023-03-26T00:49:53.239Z,1.00
2023-03-26T00:50:57.020Z,1.60
2023-03-26T00:52:01.587Z,1.30
2023-03-26T00:53:03.639Z,1.50
2023-03-26T00:54:08.137Z,1.40
2023-03-26T00:55:10.526Z,1.10
2023-03-26T00:56:14.528Z,1.38
2023-03-26T00:57:28.894Z,1.02
2023-03-26T00:58:37.318Z,1.60
2023-03-26T00:59:40.681Z,1.20
2023-03-26T01:00:46.922Z,1.20
2023-03-26T01:01:51.415Z,1.00
2023-03-26T01:02:55.833Z,1.20
2023-03-26T01:04:20.680Z,1.13
2023-03-26T01:05:45.360Z,1.38
2023-03-26T01:06:48.751Z,1.60
2023-03-26T01:07:51.678Z,1.20
2023-03-26T01:09:00.084Z,1.25
2023-03-26T01:10:02.549Z,1.25
2023-03-26T01:11:14.302Z,1.15
2023-03-26T01:12:20.733Z,1.00
2023-03-26T01:13:26.325Z,1.30
2023-03-26T01:14:29.103Z,1.25
2023-03-26T01:15:33.216Z,1.10
2023-03-26T01:16:38.222Z,1.00
2023-03-26T01:17:43.166Z,1.05
2023-03-26T01:18:48.644Z,0.80
2023-03-26T01:19:55.385Z,1.23
2023-03-26T01:21:05.224Z,1.10
2023-03-26T01:22:12.188Z,1.35
2023-03-26T01:23:20.068Z,1.40
2023-03-26T01:24:24.755Z,1.25
2023-03-26T01:25:32.598Z,1.67
2023-03-26T01:26:59.119Z,1.20
2023-03-26T01:28:14.313Z,1.38
2023-03-26T01:30:50.734Z,1.40
2023-03-26T01:33:55.497Z,1.00
2023-03-26T01:37:00.524Z,1.15
2023-03-26T01:38:44.512Z,1.50
2023-03-26T01:40:36.493Z,1.20
2023-03-26T01:41:53.626Z,1.25
2023-03-26T01:43:05.120Z,1.63
2023-03-26T01:44:40.366Z,1.75
2023-03-26T01:45:58.707Z,1.73
2023-03-26T01:48:27.198Z,1.20
2023-03-26T01:49:30.047Z,1.80
2023-03-26T01:50:33.502Z,1.60
2023-03-26T01:51:36.525Z,1.35
2023-03-26T01:52:39.932Z,1.73
2023-03-26T01:53:44.944Z,1.73
2023-03-26T01:54:49.363Z,1.75
2023-03-26T01:56:02.127Z,1.60
2023-03-26T01:57:17.158Z,1.08
2023-03-26T01:58:27.512Z,1.40
2023-03-26T01:59:45.251Z,1.40
2023-03-26T02:00:54.259Z,1.42
2023-03-26T02:02:05.822Z,1.50
2023-03-26T02:03:22.887Z,1.63
2023-03-26T02:04:31.742Z,1.50
2023-03-26T02:05:39.183Z,1.05
2023-03-26T02:06:47.787Z,1.73
2023-03-26T02:07:53.889Z,1.85
2023-03-26T02:09:03.530Z,1.38
2023-03-26T02:10:11.553Z,1.50
2023-03-26T02:11:16.741Z,1.15
2023-03-26T02:12:23.294Z,1.13
2023-03-26T02:13:27.223Z,1.20
2023-03-26T02:14:30.720Z,1.27
2023-03-26T02:15:34.719Z,1.10
2023-03-26T02:16:37.276Z,1.20
2023-03-26T02:17:42.241Z,1.45
2023-03-26T02:18:45.641Z,1.17
2023-03-26T02:19:50.595Z,1.23
2023-03-26T02:20:53.195Z,1.60
2023-03-26T02:21:59.854Z,1.35
2023-03-26T02:23:04.136Z,1.30
2023-03-26T02:24:09.031Z,1.60
2023-03-26T02:25:14.502Z,1.35
2023-03-26T02:26:20.572Z,1.50
2023-03-26T02:27:43.376Z,1.10
2023-03-26T02:28:47.126Z,1.75
2023-03-26T02:29:51.162Z,1.25
2023-03-26T02:30:57.704Z,1.65
2023-03-26T02:32:02.616Z,1.30
2023-03-26T02:33:05.468Z,1.55
2023-03-26T02:34:17.199Z,1.20
2023-03-26T02:35:26.126Z,1.38
2023-03-26T02:36:35.921Z,1.17
2023-03-26T02:37:39.686Z,1.13
2023-03-26T02:38:55.735Z,1.30
2023-03-26T02:39:58.069Z,1.40
2023-03-26T02:41:08.814Z,1.30
2023-03-26T02:42:25.289Z,1.50
2023-03-26T02:43:30.849Z,1.30
2023-03-26T02:44:33.350Z,1.08
2023-03-26T02:45:36.899Z,2.67
2023-03-26T02:46:58.593Z,1.40
2023-03-26T02:48:20.247Z,1.38
2023-03-26T02:49:48.247Z,1.38
2023-03-26T02:51:08.561Z,1.20
2023-03-26T02:52:19.987Z,1.08
2023-03-26T02:53:29.973Z,1.40
2023-03-26T02:54:51.282Z,1.23
2023-03-26T02:55:56.457Z,1.27
2023-03-26T02:57:01.409Z,1.52
2023-03-26T02:58:25.233Z,1.48
2023-03-26T02:59:29.951Z,1.77
2023-03-26T03:01:08.553Z,1.38
2023-03-26T03:02:19.395Z,1.10
2023-03-26T03:03:24.394Z,1.20
2023-03-26T03:04:35.902Z,1.30
2023-03-26T03:05:44.221Z,1.45
2023-03-26T03:07:08.404Z,1.67
2023-03-26T03:08:10.809Z,1.30
2023-03-26T03:09:20.527Z,1.38
2023-03-26T03:10:43.812Z,1.60
2023-03-26T03:12:06.119Z,1.48
2023-03-26T03:13:09.636Z,1.25
2023-03-26T03:14:11.861Z,1.60
2023-03-26T03:15:16.425Z,1.10
2023-03-26T03:16:19.485Z,1.70
2023-03-26T03:17:23.714Z,1.30
2023-03-26T03:18:26.235Z,2.22
2023-03-26T03:19:29.658Z,1.60
2023-03-26T03:20:35.480Z,1.50
2023-03-26T03:21:38.972Z,1.30
2023-03-26T03:22:42.447Z,1.77
2023-03-26T03:23:45.915Z,1.67
2023-03-26T03:24:49.592Z,1.45
2023-03-26T03:25:53.408Z,1.35
2023-03-26T03:26:56.952Z,1.33
2023-03-26T03:28:30.544Z,1.20
2023-03-26T03:29:32.706Z,1.40
2023-03-26T03:30:53.553Z,1.33
2023-03-26T03:32:02.497Z,1.02
2023-03-26T03:33:19.288Z,1.55
2023-03-26T03:34:22.092Z,1.20
2023-03-26T03:35:28.184Z,1.50
2023-03-26T03:36:38.524Z,1.73
2023-03-26T03:37:54.750Z,1.40
2023-03-26T03:39:02.956Z,1.50
2023-03-26T03:40:10.770Z,1.48
2023-03-26T03:41:15.766Z,1.20
2023-03-26T03:42:18.797Z,1.15
2023-03-26T03:43:22.453Z,1.08
2023-03-26T03:44:38.113Z,1.13
2023-03-26T03:45:48.683Z,1.10
2023-03-26T03:47:05.408Z,1.30
2023-03-26T03:48:08.776Z,1.10
2023-03-26T03:49:15.586Z,1.35
2023-03-26T03:50:19.087Z,1.33
2023-03-26T03:51:35.572Z,1.88
2023-03-26T03:52:41.801Z,1.02
2023-03-26T03:53:46.115Z,1.27
2023-03-26T03:54:51.237Z,1.85
2023-03-26T03:55:59.751Z,1.55
2023-03-26T03:57:22.051Z,1.85
2023-03-26T03:58:47.729Z,1.85
2023-03-26T03:59:58.548Z,1.40
2023-03-26T04:01:04.512Z,1.45
2023-03-26T04:02:43.636Z,1.35
2023-03-26T04:03:47.015Z,1.27
2023-03-26T04:04:52.547Z,1.38
2023-03-26T04:05:56.919Z,1.25
2023-03-26T04:07:02.504Z,0.90
2023-03-26T04:08:11.864Z,1.75
2023-03-26T04:09:21.100Z,1.15
2023-03-26T04:10:24.515Z,1.00
2023-03-26T04:11:46.605Z,2.10
2023-03-26T04:13:05.409Z,1.10
2023-03-26T04:14:28.953Z,1.48
2023-03-26T04:15:36.849Z,1.73
2023-03-26T04:16:40.055Z,1.70
2023-03-26T04:17:44.081Z,1.25
2023-03-26T04:18:49.336Z,1.55
2023-03-26T04:19:53.266Z,1.60
2023-03-26T04:20:56.719Z,1.92
2023-03-26T04:22:03.373Z,1.42
2023-03-26T04:23:14.231Z,1.30
2023-03-26T04:24:18.120Z,1.25
2023-03-26T04:25:39.912Z,1.45
2023-03-26T04:26:53.629Z,1.73
2023-03-26T04:28:06.525Z,1.17
2023-03-26T04:29:33.159Z,1.40
2023-03-26T04:30:36.710Z,1.42
2023-03-26T04:31:58.827Z,1.92
2023-03-26T04:33:06.538Z,1.45
2023-03-26T04:34:24.081Z,1.13
2023-03-26T04:35:46.126Z,1.70
2023-03-26T04:36:51.634Z,1.10
2023-03-26T04:37:54.867Z,1.38
2023-03-26T04:39:13.635Z,1.15
2023-03-26T04:40:35.029Z,2.00
2023-03-26T04:41:49.064Z,1.20
2023-03-26T04:42:54.716Z,1.90
2023-03-26T04:44:11.869Z,1.40
2023-03-26T04:45:24.181Z,1.40
2023-03-26T04:46:33.910Z,1.13
2023-03-26T04:47:53.700Z,1.50
2023-03-26T04:48:57.405Z,1.40
2023-03-26T04:50:01.238Z,1.33
2023-03-26T04:51:04.128Z,2.13
2023-03-26T04:52:07.655Z,1.58
2023-03-26T04:53:29.686Z,1.50
2023-03-26T04:54:58.166Z,1.42
2023-03-26T04:56:08.585Z,1.40
2023-03-26T04:57:46.341Z,1.55
2023-03-26T04:59:03.229Z,1.30
2023-03-26T05:00:15.834Z,1.45
2023-03-26T05:01:21.786Z,1.05
2023-03-26T05:02:26.094Z,1.55
2023-03-26T05:03:31.231Z,1.42
2023-03-26T05:04:40.960Z,2.08
2023-03-26T05:05:44.290Z,1.60
2023-03-26T05:06:47.690Z,1.92
2023-03-26T05:07:58.308Z,1.35
2023-03-26T05:09:01.708Z,1.50
2023-03-26T05:10:25.378Z,1.40
2023-03-26T05:11:34.118Z,1.60
2023-03-26T05:12:37.306Z,1.35
2023-03-26T05:13:43.592Z,1.77
2023-03-26T05:14:49.190Z,1.52
2023-03-26T05:15:57.509Z,1.30
2023-03-26T05:17:19.013Z,1.23
2023-03-26T05:18:22.867Z,0.98
2023-03-26T05:19:28.800Z,1.65
2023-03-26T05:20:33.813Z,1.50
2023-03-26T05:21:37.564Z,1.20
2023-03-26T05:22:39.744Z,1.30
2023-03-26T05:23:52.612Z,1.60
2023-03-26T05:24:56.398Z,1.55
2023-03-26T05:26:00.529Z,1.65
2023-03-26T05:27:03.121Z,1.42
2023-03-26T05:28:12.099Z,1.02
2023-03-26T05:29:24.227Z,1.38
2023-03-26T05:30:30.934Z,1.98
2023-03-26T05:31:38.682Z,2.00
2023-03-26T05:34:11.017Z,1.33
2023-03-26T05:44:16.397Z,1.30
2023-03-26T05:57:19.813Z,2.58
2023-03-26T09:05:50.533Z,1.88
2023-03-26T10:13:14.820Z,1.90
2023-03-26T19:49:06.309Z,0.80
2023-03-26T19:51:38.619Z,1.00
2023-03-26T19:54:02.202Z,1.58
2023-03-26T20:00:23.411Z,0.80
2023-03-26T20:05:03.287Z,0.80
2023-03-26T20:07:45.421Z,0.70
2023-03-26T20:08:52.112Z,0.73
2023-03-26T20:09:54.877Z,0.93
2023-03-26T20:10:59.192Z,1.05
2023-03-26T20:12:03.951Z,0.90
2023-03-26T20:13:16.133Z,0.80
2023-03-26T20:14:24.421Z,0.75
2023-03-26T20:15:31.305Z,0.90
2023-03-26T20:16:36.637Z,0.80
2023-03-26T20:17:42.929Z,0.93
2023-03-26T20:18:45.474Z,1.17
2023-03-26T20:19:49.200Z,0.98
2023-03-26T20:21:05.985Z,1.00
2023-03-26T20:22:18.131Z,1.05
2023-03-26T20:23:20.803Z,1.13
2023-03-26T20:24:27.502Z,0.70
2023-03-26T20:25:33.970Z,0.60
2023-03-26T20:26:40.159Z,0.70
2023-03-26T20:27:45.068Z,0.77
2023-03-26T20:28:53.568Z,1.15
2023-03-26T20:31:22.363Z,0.70
2023-03-26T20:32:39.944Z,1.50
2023-03-26T20:33:50.417Z,0.90
2023-03-26T20:34:58.328Z,1.38
2023-03-26T20:36:09.579Z,0.70
2023-03-26T20:38:54.401Z,0.77
2023-03-26T20:39:59.420Z,0.60
2023-03-26T20:41:03.379Z,0.70
2023-03-26T20:42:07.760Z,0.75
2023-03-26T20:43:26.780Z,0.82
2023-03-26T20:44:33.716Z,0.80
2023-03-26T20:45:36.364Z,0.70
2023-03-26T20:46:39.945Z,0.80
2023-03-26T20:47:44.154Z,0.60
2023-03-26T20:48:47.711Z,0.65
2023-03-26T20:49:54.747Z,0.60
2023-03-26T20:51:03.381Z,0.70
2023-03-26T20:52:06.702Z,0.60
2023-03-26T20:53:19.182Z,0.68
2023-03-26T20:54:34.025Z,0.70
2023-03-26T20:55:47.992Z,0.88
2023-03-26T20:56:54.905Z,0.63
2023-03-26T20:57:58.419Z,0.80
2023-03-26T20:59:11.135Z,0.90
2023-03-26T21:00:19.641Z,0.63
2023-03-26T21:01:22.713Z,0.68
2023-03-26T21:02:31.457Z,0.73
2023-03-26T21:03:34.047Z,0.70
2023-03-26T21:04:37.608Z,0.60
2023-03-26T21:05:41.300Z,0.60
2023-03-26T21:06:44.840Z,0.70
2023-03-26T21:07:49.139Z,0.80
2023-03-26T21:08:52.841Z,0.60
2023-03-26T21:09:57.994Z,0.70
2023-03-26T21:11:06.112Z,0.70
2023-03-26T21:12:22.941Z,0.65
2023-03-26T21:13:37.885Z,0.60
2023-03-26T21:19:07.014Z,0.75
2023-03-26T21:20:13.642Z,0.90
2023-03-26T21:21:29.376Z,0.70
2023-03-26T21:22:38.567Z,1.00
2023-03-26T21:23:46.208Z,0.80
2023-03-26T21:25:03.408Z,0.70
2023-03-26T21:26:15.102Z,0.60
2023-03-26T21:27:28.527Z,0.60
2023-03-26T21:28:41.855Z,0.90
2023-03-26T21:29:45.286Z,0.60
2023-03-26T21:30:49.093Z,0.65
2023-03-26T21:31:54.170Z,0.55
2023-03-26T21:32:57.409Z,0.70
2023-03-26T21:34:00.191Z,0.70
2023-03-26T21:35:05.762Z,0.70
2023-03-26T21:36:09.120Z,0.70
2023-03-26T21:37:12.904Z,0.63
2023-03-26T21:38:21.412Z,0.80
2023-03-26T21:39:24.096Z,0.63
2023-03-26T21:40:28.002Z,0.80
2023-03-26T21:41:41.329Z,0.60
2023-03-26T21:42:46.173Z,0.70
2023-03-26T21:43:48.159Z,0.70
2023-03-26T21:44:51.535Z,0.60
2023-03-26T21:45:54.801Z,0.63
2023-03-26T21:46:58.529Z,0.50
2023-03-26T21:48:02.584Z,0.75
2023-03-26T21:49:05.126Z,0.60
2023-03-26T21:50:10.778Z,0.77
2023-03-26T21:51:14.731Z,0.80
2023-03-26T21:52:18.414Z,0.73
2023-03-26T21:53:22.276Z,0.70
2023-03-26T21:54:27.990Z,0.60
2023-03-26T21:55:37.802Z,0.60
2023-03-26T21:56:49.852Z,0.63
2023-03-26T21:58:21.939Z,0.70
2023-03-26T21:59:33.899Z,0.70
2023-03-26T22:00:43.969Z,0.75
2023-03-26T22:01:52.053Z,0.70
2023-03-26T22:03:08.319Z,0.60
2023-03-26T22:04:16.786Z,0.75
2023-03-26T22:05:24.292Z,0.70
2023-03-26T22:06:31.366Z,0.70
2023-03-26T22:07:50.195Z,0.75
2023-03-26T22:08:52.478Z,0.70
2023-03-26T22:09:56.223Z,0.60
2023-03-26T22:10:58.650Z,0.60
2023-03-26T22:12:03.344Z,0.63
2023-03-26T22:13:05.478Z,0.80
2023-03-26T22:14:08.711Z,0.70
2023-03-26T22:15:13.812Z,0.80
2023-03-26T22:16:17.426Z,0.70
2023-03-26T22:17:19.685Z,0.63
2023-03-26T22:18:24.532Z,0.60
2023-03-26T22:19:28.175Z,0.98
2023-03-26T22:20:32.897Z,0.80
2023-03-26T22:21:35.933Z,0.60
2023-03-26T22:22:37.991Z,0.60
2023-03-26T22:23:41.077Z,0.60
2023-03-26T22:24:43.255Z,0.70
2023-03-26T22:25:46.961Z,0.70
2023-03-26T22:26:49.008Z,0.60
2023-03-26T22:27:53.908Z,0.60
2023-03-26T22:28:56.805Z,0.57
2023-03-26T22:30:00.331Z,1.25
2023-03-26T22:31:08.334Z,0.70
2023-03-26T22:32:10.600Z,0.60
2023-03-26T22:33:14.373Z,0.68
2023-03-26T22:34:16.831Z,0.70
2023-03-26T22:35:20.530Z,0.68
2023-03-26T22:36:23.736Z,0.60
2023-03-26T22:37:27.335Z,0.60
2023-03-26T22:38:29.472Z,0.70
2023-03-26T22:39:32.497Z,0.80
2023-03-26T22:40:34.764Z,0.57
2023-03-26T22:41:37.738Z,0.70
2023-03-26T22:42:40.417Z,0.77
2023-03-26T22:43:46.176Z,0.70
2023-03-26T22:44:48.280Z,0.75
2023-03-26T22:45:53.531Z,0.82
2023-03-26T22:46:56.888Z,0.70
2023-03-26T22:48:03.075Z,0.60
2023-03-26T22:49:06.313Z,0.50
2023-03-26T22:50:10.654Z,0.70
2023-03-26T22:51:12.756Z,0.60
2023-03-26T22:52:15.759Z,0.60
2023-03-26T22:53:17.820Z,0.70
2023-03-26T22:54:20.871Z,0.90
2023-03-26T22:55:28.440Z,0.68
2023-03-26T22:56:32.452Z,0.70
2023-03-26T22:57:35.276Z,0.70
2023-03-26T22:58:38.584Z,0.63
2023-03-26T22:59:42.180Z,0.60
2023-03-26T23:00:46.085Z,0.70
2023-03-26T23:01:49.344Z,0.60
2023-03-26T23:02:51.518Z,0.88
2023-03-26T23:03:55.660Z,1.00
2023-03-26T23:04:57.740Z,0.63
2023-03-26T23:06:03.825Z,0.90
2023-03-26T23:07:06.336Z,0.60
2023-03-26T23:08:09.506Z,0.70
2023-03-26T23:09:13.086Z,0.60
2023-03-26T23:10:16.194Z,0.68
2023-03-26T23:11:20.427Z,0.70
2023-03-26T23:12:23.471Z,0.75
2023-03-26T23:13:26.055Z,0.60
2023-03-26T23:14:32.308Z,0.70
2023-03-26T23:15:36.907Z,0.60
2023-03-26T23:16:40.622Z,0.82
2023-03-26T23:17:42.756Z,0.60
2023-03-26T23:18:46.123Z,0.50
2023-03-26T23:19:48.406Z,0.80
2023-03-26T23:20:55.293Z,0.70
2023-03-26T23:21:57.589Z,0.60
2023-03-26T23:23:01.113Z,0.75
2023-03-26T23:24:04.578Z,0.70
2023-03-26T23:25:10.054Z,0.80
2023-03-26T23:26:12.483Z,0.65
2023-03-26T23:27:15.551Z,0.50
2023-03-26T23:28:25.237Z,0.75
2023-03-26T23:29:29.997Z,0.70
2023-03-26T23:30:32.000Z,0.70
2023-03-26T23:31:37.042Z,0.60
2023-03-26T23:32:39.334Z,0.82
2023-03-26T23:33:45.790Z,0.60
2023-03-26T23:34:52.201Z,0.73
2023-03-26T23:35:57.586Z,0.60
2023-03-26T23:36:59.728Z,0.65
2023-03-26T23:38:02.863Z,0.60
2023-03-26T23:39:04.911Z,0.73
2023-03-26T23:40:09.899Z,0.63
2023-03-26T23:41:15.356Z,0.77
2023-03-26T23:42:28.353Z,0.68
2023-03-26T23:43:32.942Z,0.70
2023-03-26T23:44:39.139Z,0.73
2023-03-26T23:45:43.871Z,0.63
2023-03-26T23:46:48.467Z,0.75
2023-03-26T23:47:50.538Z,0.80
2023-03-26T23:48:54.741Z,0.50
2023-03-26T23:49:56.981Z,0.70
2023-03-26T23:51:03.103Z,0.80
2023-03-26T23:52:06.532Z,0.60
2023-03-26T23:53:09.760Z,0.60
2023-03-26T23:54:12.775Z,0.73
2023-03-26T23:55:15.972Z,0.70
2023-03-26T23:56:18.144Z,0.60
2023-03-26T23:57:21.146Z,0.80
2023-03-26T23:58:24.666Z,0.70
2023-03-26T23:59:28.044Z,0.70
